createdAt,value
2022-12-17T00:02:38.740Z,8.52
2022-12-17T00:05:24.292Z,9.93
2022-12-17T00:08:15.155Z,9.32
2022-12-17T00:11:01.009Z,9.63
2022-12-17T00:13:46.481Z,7.95
2022-12-17T00:16:32.034Z,9.02
2022-12-17T00:19:21.407Z,8.20
2022-12-17T00:22:06.821Z,10.15
2022-12-17T00:24:52.132Z,8.88
2022-12-17T00:27:37.480Z,9.40
2022-12-17T00:30:23.210Z,8.38
2022-12-17T00:33:09.628Z,9.07
2022-12-17T00:35:56.568Z,8.95
2022-12-17T00:38:41.785Z,7.93
2022-12-17T00:41:27.123Z,7.63
2022-12-17T00:44:12.435Z,7.88
2022-12-17T00:46:57.833Z,7.90
2022-12-17T00:49:43.099Z,7.85
2022-12-17T00:52:29.802Z,8.68
2022-12-17T00:55:15.176Z,8.30
2022-12-17T00:58:00.243Z,6.53
2022-12-17T01:00:45.683Z,9.07
2022-12-17T01:03:31.439Z,6.80
2022-12-17T01:06:20.596Z,8.30
2022-12-17T01:09:07.377Z,9.02
2022-12-17T01:11:52.616Z,8.48
2022-12-17T01:14:41.900Z,7.30
2022-12-17T01:17:26.796Z,8.23
2022-12-17T01:20:14.672Z,9.00
2022-12-17T01:22:59.956Z,6.80
2022-12-17T01:25:49.011Z,10.05
2022-12-17T01:28:40.485Z,6.85
2022-12-17T01:31:29.096Z,7.85
2022-12-17T01:34:16.833Z,7.20
2022-12-17T01:37:02.071Z,8.10
2022-12-17T01:39:47.416Z,6.10
2022-12-17T01:42:33.884Z,7.10
2022-12-17T01:45:19.431Z,6.88
2022-12-17T01:48:06.476Z,9.20
2022-12-17T01:50:58.591Z,6.18
2022-12-17T01:53:46.365Z,9.98
2022-12-17T01:56:31.694Z,7.28
2022-12-17T01:59:18.299Z,6.30
2022-12-17T02:02:03.660Z,8.10
2022-12-17T02:04:48.807Z,9.10
2022-12-17T02:07:43.850Z,6.00
2022-12-17T02:10:42.036Z,8.18
2022-12-17T02:13:32.526Z,8.57
2022-12-17T02:16:22.336Z,7.40
2022-12-17T02:19:11.778Z,7.47
2022-12-17T02:21:58.241Z,7.13
2022-12-17T02:24:50.194Z,6.60
2022-12-17T02:27:36.620Z,7.82
2022-12-17T02:30:24.332Z,7.20
2022-12-17T02:33:10.161Z,5.50
2022-12-17T02:35:58.929Z,7.43
2022-12-17T02:38:45.076Z,5.20
2022-12-17T02:41:33.453Z,5.95
2022-12-17T02:44:35.169Z,7.75
2022-12-17T02:47:23.018Z,7.10
2022-12-17T02:50:07.950Z,6.30
2022-12-17T02:52:55.237Z,7.68
2022-12-17T02:55:40.489Z,7.30
2022-12-17T02:58:25.806Z,6.07
2022-12-17T03:01:12.324Z,7.00
2022-12-17T03:03:57.466Z,6.05
2022-12-17T03:06:42.797Z,4.93
2022-12-17T03:09:28.063Z,7.50
2022-12-17T03:12:13.446Z,8.02
2022-12-17T03:14:58.636Z,5.03
2022-12-17T03:17:45.111Z,6.93
2022-12-17T03:20:30.484Z,5.32
2022-12-17T03:23:20.725Z,7.03
2022-12-17T03:26:06.078Z,6.47
2022-12-17T03:28:51.361Z,7.60
2022-12-17T03:31:36.630Z,6.10
2022-12-17T03:34:23.231Z,6.47
2022-12-17T03:37:08.406Z,6.25
2022-12-17T03:39:53.719Z,6.82
2022-12-17T03:42:39.018Z,5.60
2022-12-17T03:45:25.238Z,5.78
2022-12-17T03:48:10.645Z,7.30
2022-12-17T03:50:59.283Z,6.20
2022-12-17T03:53:44.546Z,5.75
2022-12-17T03:56:29.816Z,6.38
2022-12-17T03:59:15.077Z,6.63
2022-12-17T04:02:00.592Z,5.10
2022-12-17T04:04:45.602Z,7.00
2022-12-17T04:07:32.239Z,6.05
2022-12-17T04:10:17.604Z,6.30
2022-12-17T04:13:02.849Z,6.25
2022-12-17T04:15:48.195Z,7.20
2022-12-17T04:18:45.069Z,5.85
2022-12-17T04:21:30.147Z,8.68
2022-12-17T04:24:16.884Z,7.10
2022-12-17T04:27:02.042Z,7.28
2022-12-17T04:29:47.511Z,5.40
2022-12-17T04:32:35.446Z,7.68
2022-12-17T04:35:20.839Z,7.55
2022-12-17T04:38:05.677Z,5.85
2022-12-17T04:40:52.205Z,7.50
2022-12-17T04:43:37.958Z,5.90
2022-12-17T04:46:23.277Z,6.53
2022-12-17T04:49:08.465Z,6.93
2022-12-17T04:51:53.647Z,6.20
2022-12-17T04:54:38.920Z,6.32
2022-12-17T04:57:25.612Z,6.00
2022-12-17T05:00:10.907Z,4.60
2022-12-17T05:02:56.371Z,5.63
2022-12-17T05:05:41.408Z,6.32
2022-12-17T05:08:26.621Z,5.78
2022-12-17T05:11:11.972Z,4.97
2022-12-17T05:13:58.525Z,5.68
2022-12-17T05:16:43.802Z,7.80
2022-12-17T05:19:29.085Z,5.43
2022-12-17T05:22:14.447Z,6.10
2022-12-17T05:24:59.730Z,7.30
2022-12-17T05:27:44.981Z,6.07
2022-12-17T05:30:31.275Z,5.47
2022-12-17T05:33:17.580Z,7.15
2022-12-17T05:36:02.984Z,7.28
2022-12-17T05:38:48.381Z,6.47
2022-12-17T05:41:33.676Z,4.82
2022-12-17T05:44:19.026Z,7.72
2022-12-17T05:47:05.601Z,7.47
2022-12-17T05:49:50.929Z,6.95
2022-12-17T05:52:36.292Z,7.90
2022-12-17T05:55:21.581Z,9.23
2022-12-17T05:58:06.911Z,7.78
2022-12-17T06:01:00.687Z,8.00
2022-12-17T06:03:47.368Z,8.02
2022-12-17T06:06:32.669Z,7.22
2022-12-17T06:09:17.984Z,7.80
2022-12-17T06:12:03.317Z,7.07
2022-12-17T06:14:44.750Z,6.43
2022-12-17T06:17:30.012Z,6.75
2022-12-17T06:20:16.710Z,8.85
2022-12-17T06:23:01.840Z,7.70
2022-12-17T06:25:47.042Z,7.63
2022-12-17T06:28:32.224Z,10.02
2022-12-17T06:31:17.557Z,7.93
2022-12-17T06:33:59.129Z,9.80
2022-12-17T06:36:45.665Z,11.38
2022-12-17T06:39:30.989Z,10.07
2022-12-17T06:42:16.203Z,9.40
2022-12-17T06:45:01.389Z,11.23
2022-12-17T06:47:46.748Z,9.18
2022-12-17T06:50:28.382Z,11.93
2022-12-17T06:53:19.606Z,10.60
2022-12-17T06:56:13.324Z,11.13
2022-12-17T06:58:58.590Z,16.50
2022-12-17T07:01:44.399Z,11.88
2022-12-17T07:04:44.410Z,10.80
2022-12-17T07:07:29.163Z,9.20
2022-12-17T07:10:21.373Z,10.20
2022-12-17T07:13:06.916Z,9.25
2022-12-17T07:15:52.157Z,10.57
2022-12-17T07:18:37.526Z,13.23
2022-12-17T07:21:22.726Z,12.88
2022-12-17T07:24:08.056Z,10.32
2022-12-17T07:26:54.791Z,13.35
2022-12-17T07:29:40.105Z,12.32
2022-12-17T07:32:25.482Z,11.32
2022-12-17T07:35:10.724Z,13.15
2022-12-17T07:37:55.938Z,11.27
2022-12-17T07:40:41.299Z,10.85
2022-12-17T07:43:30.291Z,12.43
2022-12-17T07:46:20.867Z,11.75
2022-12-17T07:49:08.432Z,14.00
2022-12-17T07:51:53.778Z,10.55
2022-12-17T07:54:39.152Z,11.80
2022-12-17T07:57:24.197Z,10.80
2022-12-17T08:00:25.287Z,10.32
2022-12-17T08:03:15.286Z,11.60
2022-12-17T08:06:00.276Z,12.02
2022-12-17T08:08:45.550Z,13.02
2022-12-17T08:11:30.951Z,11.73
2022-12-17T08:14:16.456Z,12.30
2022-12-17T08:17:03.266Z,13.00
2022-12-17T08:19:48.763Z,14.32
2022-12-17T08:22:31.892Z,24.40
2022-12-17T08:25:17.179Z,17.05
2022-12-17T08:28:04.578Z,14.93
2022-12-17T08:30:55.838Z,13.27
2022-12-17T08:33:42.401Z,15.65
2022-12-17T08:36:27.781Z,13.10
2022-12-17T08:39:12.990Z,16.88
2022-12-17T08:42:03.960Z,11.45
2022-12-17T08:44:49.615Z,13.13
2022-12-17T08:47:35.334Z,17.60
2022-12-17T08:50:22.868Z,12.25
2022-12-17T08:53:08.191Z,14.32
2022-12-17T08:55:59.782Z,13.55
2022-12-17T08:58:59.300Z,12.15
2022-12-17T09:01:48.161Z,13.38
2022-12-17T09:04:36.232Z,15.27
2022-12-17T09:07:31.903Z,13.02
2022-12-17T09:10:40.386Z,11.00
2022-12-17T09:13:37.446Z,13.25
2022-12-17T09:16:23.272Z,11.77
2022-12-17T09:19:09.062Z,13.52
2022-12-17T09:21:54.270Z,11.95
2022-12-17T09:24:40.576Z,13.15
2022-12-17T09:27:25.975Z,11.43
2022-12-17T09:30:11.413Z,11.40
2022-12-17T09:32:56.652Z,11.75
2022-12-17T09:35:41.807Z,14.10
2022-12-17T09:38:30.178Z,12.25
2022-12-17T09:41:19.315Z,12.35
2022-12-17T09:44:09.817Z,12.65
2022-12-17T09:46:59.797Z,14.95
2022-12-17T09:49:47.716Z,16.80
2022-12-17T09:52:38.664Z,15.63
2022-12-17T09:55:37.476Z,13.60
2022-12-17T09:58:24.735Z,13.32
2022-12-17T10:01:11.494Z,14.18
2022-12-17T10:03:57.637Z,18.40
2022-12-17T10:06:44.240Z,16.35
2022-12-17T10:09:37.474Z,14.63
2022-12-17T10:12:31.547Z,15.55
2022-12-17T10:15:18.165Z,14.25
2022-12-17T10:18:03.527Z,15.88
2022-12-17T10:21:03.894Z,19.90
2022-12-17T10:23:50.971Z,15.38
2022-12-17T10:26:38.819Z,16.55
2022-12-17T10:29:30.608Z,17.00
2022-12-17T10:32:28.070Z,16.85
2022-12-17T10:35:13.392Z,14.73
2022-12-17T10:37:55.168Z,14.02
2022-12-17T10:40:44.021Z,18.27
2022-12-17T10:43:39.735Z,17.50
2022-12-17T10:46:25.239Z,16.35
2022-12-17T10:49:22.072Z,17.67
2022-12-17T10:52:08.094Z,13.60
2022-12-17T10:54:58.906Z,17.65
2022-12-17T10:57:49.398Z,14.57
2022-12-17T11:00:49.065Z,22.08
2022-12-17T11:03:43.131Z,15.25
2022-12-17T11:06:30.134Z,14.57
2022-12-17T11:09:15.820Z,12.57
2022-12-17T11:12:07.099Z,13.93
2022-12-17T11:15:00.739Z,13.70
2022-12-17T11:17:47.078Z,15.13
2022-12-17T11:20:40.971Z,17.67
2022-12-17T11:23:33.214Z,16.40
2022-12-17T11:26:22.005Z,21.85
2022-12-17T11:29:07.434Z,21.60
2022-12-17T11:32:06.966Z,23.98
2022-12-17T11:35:07.561Z,17.20
2022-12-17T11:37:57.556Z,27.95
2022-12-17T11:40:49.454Z,16.88
2022-12-17T11:43:40.480Z,17.75
2022-12-17T11:46:35.892Z,15.23
2022-12-17T11:49:30.339Z,16.73
2022-12-17T11:52:20.777Z,14.70
2022-12-17T11:55:11.523Z,17.35
2022-12-17T11:58:04.328Z,17.08
2022-12-17T12:00:52.697Z,16.83
2022-12-17T12:03:46.833Z,14.02
2022-12-17T12:06:36.512Z,14.00
2022-12-17T12:09:30.956Z,15.20
2022-12-17T12:12:22.225Z,13.55
2022-12-17T12:15:14.833Z,14.68
2022-12-17T12:18:05.001Z,14.80
2022-12-17T12:21:14.098Z,16.98
2022-12-17T12:24:07.963Z,15.13
2022-12-17T12:27:00.840Z,16.02
2022-12-17T12:29:52.083Z,17.15
2022-12-17T12:32:43.858Z,16.35
2022-12-17T12:35:34.051Z,18.15
2022-12-17T12:38:19.497Z,15.88
2022-12-17T12:41:07.358Z,18.88
2022-12-17T12:43:54.367Z,18.13
2022-12-17T12:46:43.424Z,19.30
2022-12-17T12:49:37.129Z,20.45
2022-12-17T12:52:22.421Z,18.00
2022-12-17T12:55:11.763Z,21.60
2022-12-17T12:57:59.014Z,17.80
2022-12-17T13:00:47.972Z,20.48
2022-12-17T13:03:40.038Z,16.40
2022-12-17T13:06:09.319Z,16.85
2022-12-17T13:08:37.525Z,17.70
2022-12-17T13:11:25.732Z,17.77
2022-12-17T13:13:56.793Z,12.57
2022-12-17T13:16:32.776Z,18.02
2022-12-17T13:19:06.034Z,13.65
2022-12-17T13:21:35.965Z,17.35
2022-12-17T13:24:11.930Z,15.18
2022-12-17T13:26:46.382Z,16.23
2022-12-17T13:29:22.666Z,20.05
2022-12-17T13:32:04.539Z,17.88
2022-12-17T13:34:41.303Z,17.90
2022-12-17T13:37:14.326Z,15.30
2022-12-17T13:39:47.173Z,17.90
2022-12-17T13:42:19.403Z,23.17
2022-12-17T13:44:47.714Z,20.25
2022-12-17T13:47:21.875Z,19.55
2022-12-17T13:50:24.418Z,21.10
2022-12-17T13:52:40.705Z,19.35
2022-12-17T13:55:11.242Z,18.00
2022-12-17T13:57:45.698Z,15.65
2022-12-17T14:00:22.624Z,19.67
2022-12-17T14:02:50.556Z,15.77
2022-12-17T14:05:25.150Z,17.40
2022-12-17T14:07:54.651Z,18.02
2022-12-17T14:10:22.567Z,17.65
2022-12-17T14:12:50.058Z,16.83
2022-12-17T14:15:25.648Z,19.05
2022-12-17T14:17:58.851Z,18.77
2022-12-17T14:20:27.848Z,19.77
2022-12-17T14:23:03.288Z,19.13
2022-12-17T14:25:33.867Z,17.25
2022-12-17T14:28:04.637Z,18.00
2022-12-17T14:30:46.341Z,18.50
2022-12-17T14:33:31.068Z,21.25
2022-12-17T14:35:59.991Z,19.40
2022-12-17T14:38:38.999Z,19.08
2022-12-17T14:41:31.829Z,17.88
2022-12-17T14:44:01.258Z,17.13
2022-12-17T14:46:31.330Z,18.92
2022-12-17T14:49:16.172Z,14.55
2022-12-17T14:51:44.112Z,17.20
2022-12-17T14:54:31.296Z,17.83
2022-12-17T14:57:01.791Z,17.10
2022-12-17T14:59:34.699Z,17.30
2022-12-17T15:02:05.900Z,15.43
2022-12-17T15:04:33.981Z,18.15
2022-12-17T15:07:02.341Z,17.02
2022-12-17T15:09:32.732Z,20.90
2022-12-17T15:12:00.625Z,14.05
2022-12-17T15:14:29.966Z,13.77
2022-12-17T15:16:59.224Z,16.67
2022-12-17T15:19:26.792Z,15.80
2022-12-17T15:21:54.354Z,19.73
2022-12-17T15:24:24.982Z,17.75
2022-12-17T15:26:55.004Z,18.35
2022-12-17T15:29:24.287Z,18.85
2022-12-17T15:31:51.957Z,19.52
2022-12-17T15:34:19.674Z,18.50
2022-12-17T15:36:47.923Z,19.10
2022-12-17T15:39:15.674Z,14.52
2022-12-17T15:42:00.622Z,14.63
2022-12-17T15:44:29.701Z,15.45
2022-12-17T15:47:53.927Z,13.43
2022-12-17T15:50:47.014Z,15.25
2022-12-17T15:53:14.812Z,18.23
2022-12-17T15:55:42.699Z,16.38
2022-12-17T15:58:29.412Z,17.98
2022-12-17T16:01:15.174Z,15.43
2022-12-17T16:04:25.406Z,16.80
2022-12-17T16:06:53.200Z,15.70
2022-12-17T16:09:24.351Z,18.60
2022-12-17T16:11:54.486Z,17.23
2022-12-17T16:14:24.549Z,15.00
2022-12-17T16:16:54.387Z,14.15
2022-12-17T16:19:26.079Z,15.18
2022-12-17T16:21:53.852Z,16.55
2022-12-17T16:24:22.690Z,16.98
2022-12-17T16:26:52.113Z,16.85
2022-12-17T16:29:19.760Z,17.67
2022-12-17T16:31:47.608Z,17.05
2022-12-17T16:34:17.112Z,17.50
2022-12-17T16:37:12.405Z,14.88
2022-12-17T16:39:39.971Z,17.02
2022-12-17T16:42:08.293Z,17.60
2022-12-17T16:44:38.160Z,16.20
2022-12-17T16:47:06.934Z,15.98
2022-12-17T16:49:43.695Z,16.63
2022-12-17T16:52:26.879Z,20.27
2022-12-17T16:55:01.444Z,14.48
2022-12-17T16:57:36.529Z,25.98
2022-12-17T17:00:04.987Z,16.45
2022-12-17T17:02:33.262Z,18.48
2022-12-17T17:05:02.367Z,19.70
2022-12-17T17:07:32.951Z,17.23
2022-12-17T17:10:00.763Z,17.42
2022-12-17T17:12:28.524Z,16.90
2022-12-17T17:14:56.418Z,16.50
2022-12-17T17:17:54.340Z,17.88
2022-12-17T17:20:17.292Z,14.50
2022-12-17T17:22:50.373Z,15.98
2022-12-17T17:25:21.190Z,19.25
2022-12-17T17:27:49.082Z,18.45
2022-12-17T17:30:17.226Z,20.42
2022-12-17T17:32:45.097Z,18.10
2022-12-17T17:35:12.806Z,17.38
2022-12-17T17:37:42.329Z,18.88
2022-12-17T17:40:11.822Z,16.85
2022-12-17T17:42:39.739Z,17.63
2022-12-17T17:45:09.043Z,19.65
2022-12-17T17:47:36.839Z,18.25
2022-12-17T17:50:04.983Z,19.80
2022-12-17T17:52:32.861Z,19.38
2022-12-17T17:55:02.395Z,18.95
2022-12-17T17:57:35.617Z,18.25
2022-12-17T18:00:04.247Z,18.65
2022-12-17T18:02:32.471Z,18.58
2022-12-17T18:05:06.709Z,18.00
2022-12-17T18:07:39.266Z,17.10
2022-12-17T18:10:09.920Z,16.90
2022-12-17T18:12:59.599Z,15.13
2022-12-17T18:15:27.373Z,16.00
2022-12-17T18:17:55.365Z,17.05
2022-12-17T18:20:23.858Z,12.93
2022-12-17T18:22:51.514Z,13.80
2022-12-17T18:25:23.067Z,13.95
2022-12-17T18:27:52.872Z,14.70
2022-12-17T18:30:21.324Z,16.90
2022-12-17T18:32:48.804Z,17.40
2022-12-17T18:35:16.612Z,16.65
2022-12-17T18:37:44.105Z,14.35
2022-12-17T18:40:12.149Z,16.80
2022-12-17T18:43:00.599Z,14.32
2022-12-17T18:45:28.106Z,17.13
2022-12-17T18:47:55.642Z,13.75
2022-12-17T18:50:23.196Z,15.52
2022-12-17T18:52:50.739Z,14.45
2022-12-17T18:55:18.405Z,11.32
2022-12-17T18:57:47.304Z,13.75
2022-12-17T19:00:15.831Z,13.13
2022-12-17T19:02:44.180Z,10.45
2022-12-17T19:05:12.020Z,11.40
2022-12-17T19:07:39.510Z,11.80
2022-12-17T19:10:07.984Z,13.73
2022-12-17T19:12:35.750Z,13.23
2022-12-17T19:15:05.114Z,14.68
2022-12-17T19:17:32.668Z,13.80
2022-12-17T19:20:00.174Z,13.60
2022-12-17T19:22:27.747Z,12.68
2022-12-17T19:24:55.289Z,14.65
2022-12-17T19:27:22.877Z,15.38
2022-12-17T19:29:50.485Z,12.85
2022-12-17T19:32:36.443Z,12.20
2022-12-17T19:35:08.660Z,13.00
2022-12-17T19:37:36.471Z,14.30
2022-12-17T19:40:04.741Z,14.07
2022-12-17T19:42:37.430Z,18.20
2022-12-17T19:45:06.130Z,15.27
2022-12-17T19:47:35.169Z,11.63
2022-12-17T19:50:04.973Z,15.40
2022-12-17T19:52:32.771Z,16.35
2022-12-17T19:55:00.381Z,17.55
2022-12-17T19:57:28.194Z,16.42
2022-12-17T19:59:55.935Z,16.20
2022-12-17T20:02:28.352Z,14.63
2022-12-17T20:05:00.170Z,16.23
2022-12-17T20:07:27.846Z,18.02
2022-12-17T20:09:55.499Z,15.88
2022-12-17T20:12:23.161Z,15.98
2022-12-17T20:14:51.160Z,16.80
2022-12-17T20:17:20.425Z,15.48
2022-12-17T20:19:49.501Z,14.27
2022-12-17T20:22:18.508Z,11.93
2022-12-17T20:24:46.194Z,12.50
2022-12-17T20:27:13.918Z,14.45
2022-12-17T20:29:41.608Z,13.40
2022-12-17T20:32:09.288Z,14.95
2022-12-17T20:34:36.933Z,13.10
2022-12-17T20:37:04.641Z,13.43
2022-12-17T20:39:33.701Z,17.25
2022-12-17T20:42:01.491Z,14.15
2022-12-17T20:44:29.236Z,14.32
2022-12-17T20:46:56.955Z,13.40
2022-12-17T20:49:24.729Z,14.43
2022-12-17T20:51:52.354Z,15.02
2022-12-17T20:54:21.438Z,13.60
2022-12-17T20:56:50.695Z,13.85
2022-12-17T20:59:19.782Z,13.40
2022-12-17T21:01:53.005Z,13.75
2022-12-17T21:04:23.472Z,12.15
2022-12-17T21:06:51.182Z,14.70
2022-12-17T21:09:20.949Z,12.73
2022-12-17T21:11:50.085Z,11.40
2022-12-17T21:14:19.390Z,12.60
2022-12-17T21:16:47.634Z,15.10
2022-12-17T21:19:16.440Z,15.48
2022-12-17T21:21:44.508Z,9.75
2022-12-17T21:24:12.528Z,10.30
2022-12-17T21:26:42.169Z,13.02
2022-12-17T21:29:11.581Z,12.27
2022-12-17T21:31:40.797Z,13.57
2022-12-17T21:34:10.849Z,12.20
2022-12-17T21:36:38.642Z,13.07
2022-12-17T21:39:08.978Z,13.32
2022-12-17T21:41:44.657Z,14.95
2022-12-17T21:44:15.454Z,14.60
2022-12-17T21:46:44.024Z,13.73
2022-12-17T21:49:17.576Z,13.25
2022-12-17T21:51:45.752Z,20.27
2022-12-17T21:54:19.713Z,15.95
2022-12-17T21:56:48.282Z,10.98
2022-12-17T21:59:17.754Z,11.70
2022-12-17T22:01:45.779Z,12.82
2022-12-17T22:04:13.604Z,15.35
2022-12-17T22:06:46.617Z,14.90
2022-12-17T22:09:29.436Z,13.63
2022-12-17T22:12:26.849Z,13.60
2022-12-17T22:14:55.901Z,14.27
2022-12-17T22:17:24.144Z,11.05
2022-12-17T22:20:00.720Z,14.43
2022-12-17T22:22:30.612Z,13.70
2022-12-17T22:25:00.893Z,14.43
2022-12-17T22:27:32.416Z,12.68
2022-12-17T22:30:19.170Z,13.98
2022-12-17T22:33:03.110Z,13.52
2022-12-17T22:37:08.620Z,13.10
2022-12-17T22:42:53.389Z,12.88
2022-12-17T22:44:33.478Z,11.25
2022-12-17T22:44:48.488Z,10.45
2022-12-17T22:47:17.768Z,12.02
2022-12-17T22:49:45.635Z,10.35
2022-12-17T22:52:17.508Z,10.82
2022-12-17T22:54:46.637Z,15.80
2022-12-17T22:57:36.688Z,14.50
2022-12-17T23:00:02.492Z,14.27
2022-12-17T23:02:32.146Z,11.40
2022-12-17T23:05:00.855Z,13.45
2022-12-17T23:07:33.367Z,10.27
2022-12-17T23:10:01.024Z,13.38
2022-12-17T23:12:46.242Z,12.30
2022-12-17T23:15:13.933Z,11.73
2022-12-17T23:17:43.057Z,10.68
2022-12-17T23:20:12.116Z,11.15
2022-12-17T23:22:42.634Z,11.90
2022-12-17T23:25:11.041Z,11.52
2022-12-17T23:27:38.943Z,12.38
2022-12-17T23:30:10.363Z,11.88
2022-12-17T23:32:38.100Z,10.30
2022-12-17T23:35:08.313Z,10.93
2022-12-17T23:37:39.993Z,10.05
2022-12-17T23:40:09.389Z,12.80
2022-12-17T23:42:37.046Z,12.75
2022-12-17T23:45:05.901Z,10.75
2022-12-17T23:47:33.558Z,13.00
2022-12-17T23:50:01.245Z,12.55
2022-12-17T23:52:30.448Z,10.57
2022-12-17T23:55:01.449Z,12.13
2022-12-17T23:57:29.718Z,14.23
